Todmorden, United Kingdom
Current Conditions -  °F | °C
As of 11:20 AM on Friday 24 Oct 2014 (Local Time) from EGNM Reporting Station
Scattered Clouds Scattered Clouds  
Wind Chill: 52°   Ceiling: Unl
Heat Index: 52°   Visibility: 6mi
Dew Point: 50°   Wind: 6mph
Humidity: 94%   Direction: 210°SSW
Pressure: 29.88"   Gusts: NA
Location:  53.71°N, 2.1°W
Report Text: EGNM 241020Z 21005KT 180V260 9999 SCT022 SCT032 11/10 Q1012
Loading
Personal Weather Stations






























Interactive Weather Map
Tropical Storm Tracking
New forecast layout! Learn more

10-Day Weather Forecast

Advertisements
Track Severe Weather on mobile